Midland, North Carolina
Current Conditions -  °F | °C
As of 12:53 AM on Sunday 21 Dec 2014 (Local Time) from KEQY Reporting Station
Overcast Overcast  
Wind Chill: 40°   Ceiling: 3300
Heat Index: 40°   Visibility: 9mi
Dew Point: 35°   Wind: 0mph
Humidity: 83%   Direction: NA
Pressure: 30.25"   Gusts: NA
Location:  35.23°N, 80.5°W
Report Text: KEQY 210553Z AUTO 00000KT 9SM SCT024 OVC033 04/02 A3025 RMK AO2 SLP260 T00440017 10056 20039 51000
Loading
Personal Weather Stations






























Interactive Weather Map New forecast layout! Learn more

10-Day Weather Forecast

Advertisements
Track Severe Weather on mobile